Time;durP1;ratioP1;P1;durP2;ratioP2;P2;SDS_P1;SDS_P2;PMS_P1;PMS_P2;Temp;Humidity;BMP_temperature;BMP_pressure;BME280_temperature;BME280_humidity;BME280_pressure;Samples;Min_cycle;Max_cycle;Signal;HPM_P1;HPM_P2
2022/06/18 00:00:47;;;;;;;7.15;3.10;;;;;;;21.65;65.53;101690.19;5051556;28;20070;-66
2022/06/18 00:03:13;;;;;;;4.80;3.30;;;;;;;21.56;65.35;101691.94;5050612;28;20051;-66
2022/06/18 00:05:40;;;;;;;8.20;3.28;;;;;;;21.53;65.39;101688.66;5067270;28;20487;-67
2022/06/18 00:08:15;;;;;;;4.55;3.25;;;;;;;21.55;65.63;101694.81;5058825;28;20138;-66
2022/06/18 00:10:42;;;;;;;9.35;3.85;;;;;;;21.51;65.77;101690.69;5053745;28;20414;-66
2022/06/18 00:16:01;;;;;;;4.07;3.40;;;;;;;21.42;65.89;101686.97;5057094;28;20036;-67
2022/06/18 00:18:27;;;;;;;4.63;3.75;;;;;;;21.39;66.02;101681.88;5061381;28;20032;-67
2022/06/18 00:20:53;;;;;;;5.68;3.60;;;;;;;21.32;66.92;101676.16;5055404;28;20033;-67
2022/06/18 00:23:19;;;;;;;4.82;3.65;;;;;;;21.40;66.04;101684.41;5051312;28;20597;-67
2022/06/18 00:25:50;;;;;;;11.77;4.05;;;;;;;21.38;66.48;101677.41;5052948;28;20043;-66
2022/06/18 00:28:19;;;;;;;7.10;3.83;;;;;;;21.32;66.48;101678.88;5058740;28;20064;-67
2022/06/18 00:30:45;;;;;;;4.72;3.90;;;;;;;21.23;66.54;101679.69;5063977;28;20040;-67
2022/06/18 00:33:12;;;;;;;6.20;4.18;;;;;;;21.18;67.54;101690.13;5047148;28;20131;-67
2022/06/18 00:35:38;;;;;;;6.68;3.90;;;;;;;21.06;67.77;101683.19;5056839;28;20067;-66
2022/06/18 00:38:07;;;;;;;8.43;3.88;;;;;;;21.04;68.19;101682.47;5052783;28;20044;-66
2022/06/18 00:40:39;;;;;;;10.50;4.70;;;;;;;20.99;68.48;101687.47;5083188;28;20044;-66
2022/06/18 00:43:20;;;;;;;7.78;3.70;;;;;;;20.83;68.99;101680.75;5062813;28;20040;-67
2022/06/18 00:45:45;;;;;;;7.53;4.15;;;;;;;20.76;69.72;101676.06;5030265;28;20029;-65
2022/06/18 00:48:37;;;;;;;11.30;4.57;;;;;;;20.80;70.03;101678.34;5051404;28;20113;-67
2022/06/18 00:51:15;;;;;;;9.87;3.73;;;;;;;20.64;70.36;101672.66;5047902;28;20105;-67
2022/06/18 00:53:48;;;;;;;8.82;4.10;;;;;;;20.63;70.91;101676.34;5067767;28;20461;-66
2022/06/18 00:56:37;;;;;;;6.60;3.80;;;;;;;20.66;70.64;101670.63;5078587;28;20044;-66
2022/06/18 00:59:10;;;;;;;9.23;4.35;;;;;;;20.60;71.23;101665.78;5051463;28;20849;-67
2022/06/18 01:01:40;;;;;;;6.03;4.25;;;;;;;20.56;71.38;101665.22;5054286;28;20046;-66
2022/06/18 01:04:22;;;;;;;9.32;3.92;;;;;;;20.43;71.80;101665.47;5055729;28;20039;-67
2022/06/18 01:06:48;;;;;;;8.07;3.92;;;;;;;20.55;71.32;101660.81;5067794;28;20040;-67
2022/06/18 01:09:16;;;;;;;7.78;4.72;;;;;;;20.34;72.43;101662.75;5059085;28;20043;-67
2022/06/18 01:11:46;;;;;;;5.30;4.00;;;;;;;20.26;73.02;101649.91;5055179;28;20652;-66
2022/06/18 01:14:15;;;;;;;11.93;4.78;;;;;;;20.28;72.71;101653.34;5083818;27;20032;-67
2022/06/18 01:16:41;;;;;;;5.40;4.45;;;;;;;20.12;73.29;101658.41;5098106;27;20438;-66
2022/06/18 01:19:19;;;;;;;7.13;4.78;;;;;;;19.98;74.13;101653.38;5080960;28;20116;-67
2022/06/18 01:22:05;;;;;;;6.55;4.95;;;;;;;19.90;74.10;101662.22;5058058;28;20042;-67
2022/06/18 01:24:40;;;;;;;14.82;5.50;;;;;;;19.93;74.61;101653.84;5044739;28;20036;-66
2022/06/18 01:27:09;;;;;;;9.70;6.28;;;;;;;19.71;75.53;101654.03;5067206;28;20128;-67
2022/06/18 01:29:36;;;;;;;11.02;5.28;;;;;;;19.59;76.33;101655.94;5054561;28;20040;-67
2022/06/18 01:32:03;;;;;;;11.65;5.80;;;;;;;19.53;76.53;101649.25;5079331;28;20029;-67
2022/06/18 01:34:30;;;;;;;7.30;5.32;;;;;;;19.64;75.79;101642.91;5062129;28;20036;-67
2022/06/18 01:36:59;;;;;;;7.03;5.05;;;;;;;19.74;75.41;101641.09;5060105;28;20773;-68
2022/06/18 01:39:30;;;;;;;7.00;4.95;;;;;;;19.74;75.20;101637.53;5088548;27;20037;-66
2022/06/18 01:42:24;;;;;;;13.27;6.45;;;;;;;19.63;76.23;101642.03;5041540;28;20123;-66
2022/06/18 01:44:56;;;;;;;10.35;6.05;;;;;;;19.53;76.33;101640.22;5067247;28;20459;-67
2022/06/18 01:47:37;;;;;;;7.20;5.75;;;;;;;19.44;77.82;101643.78;5096637;27;20028;-67
2022/06/18 01:50:20;;;;;;;11.43;5.82;;;;;;;19.42;77.65;101642.03;5078429;28;20040;-67
2022/06/18 01:52:50;;;;;;;7.53;5.18;;;;;;;19.30;78.47;101643.13;5044730;28;20056;-66
2022/06/18 01:55:19;;;;;;;12.18;5.75;;;;;;;19.37;77.94;101632.63;5059481;28;20036;-66
2022/06/18 01:57:51;;;;;;;7.57;5.63;;;;;;;19.38;77.87;101631.66;5091179;27;20371;-67
2022/06/18 02:00:26;;;;;;;7.50;5.88;;;;;;;19.41;77.77;101631.38;5070461;28;20199;-66
2022/06/18 02:03:00;;;;;;;12.83;6.17;;;;;;;19.29;78.21;101632.47;5055893;28;20046;-66
2022/06/18 02:05:26;;;;;;;9.60;6.15;;;;;;;19.13;80.20;101630.25;5054427;28;20470;-66
2022/06/18 02:07:52;;;;;;;9.82;6.43;;;;;;;19.22;78.79;101632.13;5070275;28;20089;-67
2022/06/18 02:10:35;;;;;;;13.93;6.72;;;;;;;19.13;79.17;101632.94;5085082;28;20467;-66
2022/06/18 02:13:03;;;;;;;8.98;6.65;;;;;;;19.05;79.47;101630.03;5054310;28;20105;-67
2022/06/18 02:15:34;;;;;;;12.88;6.32;;;;;;;19.10;79.96;101630.50;5059362;28;20040;-67
2022/06/18 02:18:05;;;;;;;8.88;5.38;;;;;;;18.77;80.95;101627.00;5043751;28;20066;-65
2022/06/18 02:20:34;;;;;;;10.70;5.78;;;;;;;18.83;80.15;101617.53;5055050;28;20320;-65
2022/06/18 02:22:59;;;;;;;11.00;6.35;;;;;;;18.95;80.02;101610.19;5063055;28;20067;-65
2022/06/18 02:25:28;;;;;;;9.73;6.18;;;;;;;18.88;80.54;101615.28;5061029;28;20032;-67
2022/06/18 02:28:05;;;;;;;8.15;5.60;;;;;;;18.91;80.78;101609.59;5058824;28;20040;-65
2022/06/18 02:30:35;;;;;;;11.80;7.13;;;;;;;18.84;80.81;101611.13;5064779;28;20041;-66
2022/06/18 02:33:21;;;;;;;8.48;6.35;;;;;;;18.88;81.09;101604.47;5082633;28;20033;-66
2022/06/18 02:35:47;;;;;;;15.50;6.95;;;;;;;18.74;82.12;101618.31;5059517;28;20037;-66
2022/06/18 02:38:20;;;;;;;10.05;6.38;;;;;;;18.62;82.75;101618.34;5070385;28;20691;-67
2022/06/18 02:40:46;;;;;;;;;;;;;;;18.49;83.29;101622.22;5071505;28;20368;-67
2022/06/18 02:43:13;;;;;;;10.80;7.18;;;;;;;18.49;82.98;101619.50;5086968;28;20010;-67
2022/06/18 02:45:41;;;;;;;12.02;6.45;;;;;;;18.55;82.84;101625.25;5064559;28;20340;-67
2022/06/18 02:48:11;;;;;;;11.43;6.93;;;;;;;18.45;83.68;101627.00;5058781;28;20036;-67
2022/06/18 02:50:38;;;;;;;12.57;6.93;;;;;;;18.46;83.65;101623.31;5054355;28;20043;-65
2022/06/18 02:53:06;;;;;;;9.75;7.07;;;;;;;18.64;82.44;101627.16;5081993;28;20059;-66
2022/06/18 02:55:44;;;;;;;13.00;8.07;;;;;;;18.60;82.65;101628.41;5064647;28;20228;-66
2022/06/18 02:58:19;;;;;;;11.75;7.00;;;;;;;18.67;81.97;101626.03;5058701;28;20521;-65
2022/06/18 03:00:56;;;;;;;10.32;6.35;;;;;;;18.79;81.97;101633.13;5056408;28;20715;-66
2022/06/18 03:03:25;;;;;;;11.98;7.47;;;;;;;18.85;81.51;101618.25;5053864;28;20040;-66
2022/06/18 03:05:54;;;;;;;14.50;8.10;;;;;;;18.95;80.95;101619.16;5053602;28;20067;-66
2022/06/18 03:08:26;;;;;;;11.95;7.07;;;;;;;19.00;80.48;101629.56;5067371;28;20101;-66
2022/06/18 03:13:40;;;;;;;10.43;7.47;;;;;;;19.18;79.84;101622.59;5056518;28;20415;-65
2022/06/18 03:16:09;;;;;;;11.02;7.45;;;;;;;19.21;79.47;101633.13;5090480;27;20032;-66
2022/06/18 03:18:37;;;;;;;13.02;7.80;;;;;;;19.20;80.21;101634.09;5056861;28;20029;-65
2022/06/18 03:21:30;;;;;;;12.43;8.07;;;;;;;19.46;78.11;101625.56;5054249;28;20071;-65
2022/06/18 03:23:57;;;;;;;13.98;7.22;;;;;;;19.44;78.51;101635.66;5050553;28;20047;-65
2022/06/18 03:26:23;;;;;;;11.95;7.00;;;;;;;19.55;77.72;101636.41;5067193;28;20044;-66
2022/06/18 03:28:52;;;;;;;11.07;7.05;;;;;;;19.67;77.29;101632.63;5077701;28;20036;-65
2022/06/18 03:31:18;;;;;;;14.80;8.07;;;;;;;19.81;76.59;101633.25;5077083;28;20036;-65
2022/06/18 03:33:46;;;;;;;10.80;7.07;;;;;;;19.74;76.79;101634.81;5091988;27;20036;-66
2022/06/18 03:36:12;;;;;;;12.77;7.07;;;;;;;19.89;75.74;101633.44;5068083;28;20538;-65
2022/06/18 03:38:38;;;;;;;13.13;7.25;;;;;;;20.05;75.17;101639.19;5066114;28;20127;-65
2022/06/18 03:41:04;;;;;;;13.45;7.82;;;;;;;20.22;74.33;101639.47;5061279;28;20046;-65
2022/06/18 03:43:31;;;;;;;14.43;7.32;;;;;;;20.27;73.89;101626.38;5094181;27;20044;-66
2022/06/18 03:46:00;;;;;;;12.48;7.80;;;;;;;20.37;73.62;101636.22;5076251;28;20066;-66
2022/06/18 03:48:30;;;;;;;13.63;7.65;;;;;;;20.52;73.36;101623.13;5067972;28;20043;-65
2022/06/18 03:50:57;;;;;;;15.80;7.55;;;;;;;20.42;73.96;101631.22;5083213;28;20037;-66
2022/06/18 03:53:23;;;;;;;12.68;7.85;;;;;;;20.64;72.83;101632.84;5067140;28;20043;-65
2022/06/18 03:55:49;;;;;;;12.35;7.32;;;;;;;20.64;72.78;101630.13;5055099;28;20202;-66
2022/06/18 03:58:15;;;;;;;13.55;7.43;;;;;;;20.67;72.30;101634.41;5074141;28;20032;-66
2022/06/18 04:00:41;;;;;;;13.27;7.78;;;;;;;20.93;71.95;101629.22;5071558;28;20032;-65
2022/06/18 04:03:07;;;;;;;15.55;7.82;;;;;;;21.02;70.96;101627.50;5085003;28;20447;-66
2022/06/18 04:05:36;;;;;;;13.52;7.10;;;;;;;21.05;71.25;101624.50;5066360;28;20036;-66
2022/06/18 04:08:02;;;;;;;14.50;8.00;;;;;;;21.09;71.34;101625.94;5054522;28;20113;-66
2022/06/18 04:10:50;;;;;;;14.35;7.82;;;;;;;21.15;70.79;101628.91;5055632;28;20756;-66
2022/06/18 04:13:16;;;;;;;19.25;7.88;;;;;;;21.15;71.67;101633.47;5052269;28;20041;-66
2022/06/18 04:15:55;;;;;;;13.27;6.97;;;;;;;21.33;70.34;101628.16;5051410;28;20028;-66
2022/06/18 04:18:25;;;;;;;12.52;8.02;;;;;;;21.21;70.58;101620.19;5056800;28;20036;-66
2022/06/18 04:20:52;;;;;;;10.70;7.47;;;;;;;21.29;69.94;101632.16;5067151;28;20159;-66
2022/06/18 04:23:18;;;;;;;13.43;7.88;;;;;;;21.50;70.01;101629.25;5063162;28;20052;-66
2022/06/18 04:25:45;;;;;;;10.40;8.15;;;;;;;21.42;70.31;101624.56;5049350;28;20040;-66
2022/06/18 04:28:12;;;;;;;10.43;8.20;;;;;;;21.64;69.45;101626.91;5054400;28;20154;-66
2022/06/18 04:30:41;;;;;;;12.25;7.68;;;;;;;21.97;68.64;101620.00;5062593;28;20043;-66
2022/06/18 04:33:11;;;;;;;14.50;7.72;;;;;;;21.92;68.30;101624.19;5052762;28;20595;-66
2022/06/18 04:35:44;;;;;;;16.83;7.78;;;;;;;22.20;67.51;101633.19;5051570;28;20028;-66
2022/06/18 04:38:12;;;;;;;15.45;8.85;;;;;;;22.18;67.82;101632.47;5045840;28;20126;-66
2022/06/18 04:40:53;;;;;;;11.55;7.22;;;;;;;22.53;67.06;101633.50;5061529;28;20147;-66
2022/06/18 04:43:23;;;;;;;14.63;8.40;;;;;;;22.26;67.50;101631.72;5059225;28;20141;-66
2022/06/18 04:45:54;;;;;;;12.13;7.82;;;;;;;22.51;67.13;101630.09;5075613;28;20111;-66
2022/06/18 04:48:21;;;;;;;16.42;7.93;;;;;;;22.60;66.79;101632.75;5054089;28;20405;-66
2022/06/18 04:50:47;;;;;;;14.25;7.80;;;;;;;22.72;66.51;101638.78;5059121;28;20981;-66
2022/06/18 04:53:13;;;;;;;16.83;8.32;;;;;;;22.80;67.02;101636.13;5052374;28;20071;-67
2022/06/18 04:55:40;;;;;;;14.18;8.75;;;;;;;23.29;66.35;101636.50;5058944;28;20101;-66
2022/06/18 04:58:06;;;;;;;14.60;7.65;;;;;;;23.85;63.86;101643.28;5073741;28;20471;-67
2022/06/18 05:00:34;;;;;;;15.25;8.10;;;;;;;24.06;62.49;101636.56;5052041;28;20294;-67
2022/06/18 05:03:17;;;;;;;15.82;7.32;;;;;;;24.56;60.64;101632.94;5052949;28;20788;-66
2022/06/18 05:06:18;;;;;;;17.88;7.82;;;;;;;24.92;59.37;101637.00;5004590;28;20049;-67
2022/06/18 05:09:06;;;;;;;16.48;7.50;;;;;;;25.52;59.19;101638.47;5004460;28;21023;-66
2022/06/18 05:11:57;;;;;;;14.27;7.85;;;;;;;25.32;59.12;101640.72;5002474;28;20033;-67
2022/06/18 05:14:43;;;;;;;20.60;8.93;;;;;;;25.60;58.64;101641.16;5007516;28;20053;-67
2022/06/18 05:17:16;;;;;;;18.05;9.30;;;;;;;25.25;57.83;101636.97;5008341;28;20132;-67
2022/06/18 05:19:42;;;;;;;12.30;7.93;;;;;;;25.99;57.89;101640.34;5008393;28;20068;-67
2022/06/18 05:22:09;;;;;;;15.65;7.82;;;;;;;26.00;57.50;101633.81;4991158;28;20049;-66
2022/06/18 05:24:35;;;;;;;14.15;8.75;;;;;;;25.72;56.47;101636.16;5008915;28;20123;-67
2022/06/18 05:27:24;;;;;;;13.40;7.65;;;;;;;25.78;56.53;101630.03;5008980;28;20521;-66
2022/06/18 05:29:50;;;;;;;12.27;8.05;;;;;;;26.03;56.20;101622.53;4978198;28;20041;-66
2022/06/18 05:32:16;;;;;;;15.48;9.07;;;;;;;25.76;58.22;101634.81;5006724;28;20060;-67
2022/06/18 05:34:42;;;;;;;11.15;8.40;;;;;;;26.04;55.51;101630.56;5006760;28;20392;-66
2022/06/18 05:37:12;;;;;;;13.15;8.65;;;;;;;26.32;54.16;101627.31;4990788;28;20048;-67
2022/06/18 05:39:38;;;;;;;16.10;8.48;;;;;;;25.91;56.36;101626.72;5007796;28;20056;-65
2022/06/18 05:42:04;;;;;;;13.93;8.18;;;;;;;26.26;54.37;101626.19;5074559;28;20094;-67
2022/06/18 05:44:29;;;;;;;16.60;8.95;;;;;;;26.05;56.13;101626.78;5071275;28;20078;-66
2022/06/18 05:46:55;;;;;;;14.73;8.27;;;;;;;26.95;54.92;101625.28;5052491;28;20110;-66
2022/06/18 05:49:21;;;;;;;19.10;9.15;;;;;;;26.22;54.49;101629.44;5052252;28;20033;-65
2022/06/18 05:51:47;;;;;;;17.08;9.43;;;;;;;26.35;54.17;101621.47;5055646;28;20131;-67
2022/06/18 05:54:12;;;;;;;17.73;9.43;;;;;;;26.20;57.24;101624.13;5069554;28;20537;-65
2022/06/18 05:56:48;;;;;;;16.35;8.63;;;;;;;27.09;55.27;101624.50;5054330;28;20033;-67
2022/06/18 05:59:40;;;;;;;;;;;;;;;26.48;54.79;101612.72;5053010;28;20040;-67
2022/06/18 06:02:11;;;;;;;18.08;8.45;;;;;;;27.03;54.33;101619.75;5051413;28;19990;-66
2022/06/18 06:04:39;;;;;;;17.58;8.55;;;;;;;27.15;54.39;101615.53;5077415;28;20356;-65
2022/06/18 06:07:25;;;;;;;16.52;8.55;;;;;;;27.11;55.47;101622.44;5049388;28;20051;-67
2022/06/18 06:12:38;;;;;;;16.52;9.40;;;;;;;26.65;53.89;101622.47;5063830;28;20032;-66
2022/06/18 06:15:04;;;;;;;15.27;9.43;;;;;;;26.56;53.35;101618.97;5050524;28;20029;-67
2022/06/18 06:17:30;;;;;;;14.48;9.23;;;;;;;26.76;54.75;101623.94;5085128;28;20025;-67
2022/06/18 06:20:12;;;;;;;12.25;8.90;;;;;;;26.78;53.12;101616.41;5058147;28;20032;-67
2022/06/18 06:22:37;;;;;;;25.40;9.80;;;;;;;26.59;54.44;101628.69;5057315;28;20549;-67
2022/06/18 06:25:03;;;;;;;18.05;10.20;;;;;;;26.65;55.15;101627.09;5053336;28;20052;-65
2022/06/18 06:27:29;;;;;;;17.67;9.32;;;;;;;26.41;54.92;101630.84;5052262;28;20106;-67
2022/06/18 06:29:54;;;;;;;19.23;9.32;;;;;;;27.21;52.07;101627.63;5051558;28;20032;-67
2022/06/18 06:32:21;;;;;;;19.95;8.63;;;;;;;26.85;54.51;101622.81;5050052;28;20091;-65
2022/06/18 06:34:46;;;;;;;14.85;9.43;;;;;;;27.36;53.67;101629.38;5051664;28;20505;-67
2022/06/18 06:37:12;;;;;;;15.85;8.85;;;;;;;27.63;51.87;101627.00;5082530;27;20079;-66
2022/06/18 06:39:37;;;;;;;13.70;9.25;;;;;;;27.58;52.81;101635.78;5053294;28;20044;-68
2022/06/18 06:42:03;;;;;;;21.55;8.70;;;;;;;28.18;50.54;101630.22;5055876;28;20044;-67
2022/06/18 06:44:29;;;;;;;18.17;8.70;;;;;;;27.74;52.36;101637.50;5055270;28;20021;-67
2022/06/18 06:46:55;;;;;;;20.83;8.82;;;;;;;27.44;50.29;101635.78;5052118;28;20446;-67
2022/06/18 06:49:20;;;;;;;16.48;8.60;;;;;;;27.57;51.21;101641.47;5053068;28;20094;-68
2022/06/18 06:51:46;;;;;;;17.55;7.13;;;;;;;28.29;50.60;101646.16;5051123;28;20045;-67
2022/06/18 06:54:11;;;;;;;16.33;8.70;;;;;;;28.27;51.24;101640.88;5061487;28;20047;-67
2022/06/18 06:59:35;;;;;;;14.95;8.93;;;;;;;28.07;52.52;101648.88;5027179;28;20528;-67
2022/06/18 07:02:02;;;;;;;12.70;7.95;;;;;;;28.26;50.32;101644.66;5043376;28;20086;-67
2022/06/18 07:04:27;;;;;;;19.63;8.55;;;;;;;27.88;51.24;101647.59;5058008;28;20048;-66
2022/06/18 07:06:56;;;;;;;20.30;8.98;;;;;;;27.95;51.19;101650.41;5061709;28;20141;-67
2022/06/18 07:09:21;;;;;;;18.48;9.07;;;;;;;27.57;52.28;101645.03;5045734;28;20879;-67
2022/06/18 07:11:47;;;;;;;17.20;8.93;;;;;;;28.31;51.97;101646.81;5051264;28;20063;-67
2022/06/18 07:14:12;;;;;;;16.00;9.48;;;;;;;27.78;51.89;101644.31;5050032;28;20042;-67
2022/06/18 07:16:52;;;;;;;18.63;9.68;;;;;;;28.46;51.74;101642.16;5047421;28;20137;-67
2022/06/18 07:19:18;;;;;;;13.63;8.63;;;;;;;28.64;49.63;101645.31;5049251;28;20117;-66
2022/06/18 07:21:44;;;;;;;12.18;9.25;;;;;;;27.81;51.39;101643.06;5052781;28;20036;-67
2022/06/18 07:24:10;;;;;;;16.50;9.05;;;;;;;28.86;49.87;101645.28;5047374;28;20713;-66
2022/06/18 07:26:35;;;;;;;12.50;8.98;;;;;;;28.77;53.03;101649.22;5050537;28;20037;-66
2022/06/18 07:29:01;;;;;;;18.08;9.05;;;;;;;29.35;50.41;101652.66;5049382;28;20043;-66
2022/06/18 07:31:30;;;;;;;16.38;10.00;;;;;;;28.45;49.80;101648.69;5046161;28;20582;-66
2022/06/18 07:33:58;;;;;;;15.55;9.15;;;;;;;29.37;50.48;101650.56;5037760;28;20032;-68
2022/06/18 07:36:24;;;;;;;22.25;11.27;;;;;;;28.24;50.73;101654.97;5033906;28;20063;-67
2022/06/18 07:38:49;;;;;;;17.40;10.05;;;;;;;28.53;51.34;101651.31;5040474;28;20040;-67
2022/06/18 07:41:18;;;;;;;18.15;9.73;;;;;;;29.42;48.11;101648.91;5034113;28;20036;-67
2022/06/18 07:43:52;;;;;;;19.00;10.70;;;;;;;28.61;50.57;101640.19;5040788;28;20070;-68
2022/06/18 07:46:18;;;;;;;19.35;9.85;;;;;;;29.00;49.78;101644.38;5042329;28;20910;-68
2022/06/18 07:48:43;;;;;;;20.33;9.88;;;;;;;28.68;50.01;101650.41;5064389;28;20044;-68
2022/06/18 07:51:09;;;;;;;17.55;10.73;;;;;;;28.77;49.66;101649.22;5053920;28;20052;-68
2022/06/18 07:53:35;;;;;;;19.50;10.23;;;;;;;29.03;49.86;101645.88;5049888;28;20099;-68
2022/06/18 07:56:01;;;;;;;16.65;9.27;;;;;;;29.79;47.81;101646.81;5047322;28;20036;-68
2022/06/18 07:58:27;;;;;;;14.85;9.10;;;;;;;29.62;47.76;101653.69;5057612;28;20032;-68
2022/06/18 08:00:53;;;;;;;24.63;10.57;;;;;;;29.42;46.80;101653.56;5049998;28;20421;-68
2022/06/18 08:03:19;;;;;;;19.40;9.80;;;;;;;29.23;48.87;101652.38;5059377;28;20072;-66
2022/06/18 08:05:47;;;;;;;19.17;10.35;;;;;;;28.78;49.23;101651.78;5044623;28;20032;-68
2022/06/18 08:08:13;;;;;;;19.67;9.35;;;;;;;30.08;50.14;101640.16;5049043;28;20071;-65
2022/06/18 08:10:41;;;;;;;20.90;9.43;;;;;;;30.27;49.25;101635.78;5044473;28;20035;-66
2022/06/18 08:13:07;;;;;;;20.90;10.45;;;;;;;29.37;49.91;101640.44;5041194;28;20512;-66
2022/06/18 08:15:33;;;;;;;20.98;10.18;;;;;;;29.89;49.40;101636.28;5046723;28;20040;-66
2022/06/18 08:17:59;;;;;;;17.30;8.13;;;;;;;30.25;46.11;101626.91;5051302;28;20036;-67
2022/06/18 08:20:25;;;;;;;21.83;9.75;;;;;;;30.26;46.60;101625.84;5047295;28;20290;-65
2022/06/18 08:22:55;;;;;;;20.35;8.27;;;;;;;29.90;46.65;101631.63;5052233;28;20476;-67
2022/06/18 08:25:23;;;;;;;21.13;9.98;;;;;;;30.06;50.20;101622.16;5041105;28;20033;-68
2022/06/18 08:27:51;;;;;;;20.08;9.27;;;;;;;30.40;46.86;101622.06;5038876;28;20037;-66
2022/06/18 08:30:17;;;;;;;22.50;8.48;;;;;;;29.82;49.04;101621.66;5038013;28;20040;-66
2022/06/18 08:32:43;;;;;;;20.17;9.88;;;;;;;29.96;46.70;101633.53;5050281;28;20892;-67
2022/06/18 08:35:09;;;;;;;19.30;9.27;;;;;;;29.78;46.89;101623.13;5050653;28;20039;-67
2022/06/18 08:37:35;;;;;;;15.75;9.30;;;;;;;30.56;48.71;101628.22;5051622;28;20048;-66
2022/06/18 08:40:04;;;;;;;16.45;8.55;;;;;;;30.49;49.43;101627.38;5049117;28;20465;-66
2022/06/18 08:43:02;;;;;;;16.45;10.05;;;;;;;30.80;46.44;101624.03;5059627;28;20040;-66
2022/06/18 08:45:50;;;;;;;15.98;8.65;;;;;;;30.70;46.25;101627.22;5050385;28;20440;-65
2022/06/18 08:48:43;;;;;;;18.10;10.02;;;;;;;30.28;46.42;101628.41;5044226;28;20060;-65
2022/06/18 08:51:18;;;;;;;25.60;10.48;;;;;;;30.18;44.83;101635.16;5036485;28;20900;-66
2022/06/18 08:53:59;;;;;;;21.85;9.45;;;;;;;30.47;46.84;101633.06;5047178;28;20056;-66
2022/06/18 08:56:40;;;;;;;23.48;9.20;;;;;;;30.49;48.30;101627.38;5045213;28;20039;-66
2022/06/18 08:59:21;;;;;;;14.13;9.63;;;;;;;30.95;49.08;101619.16;5044170;28;20146;-66
2022/06/18 09:02:01;;;;;;;17.75;9.63;;;;;;;31.00;45.07;101619.38;5046204;28;20040;-66
2022/06/18 09:04:38;;;;;;;21.27;9.77;;;;;;;30.87;45.75;101628.47;5045707;28;20040;-68
2022/06/18 09:07:28;;;;;;;20.10;10.45;;;;;;;31.00;46.78;101633.16;5014605;28;20286;-66
2022/06/18 09:10:02;;;;;;;18.30;9.65;;;;;;;30.63;47.43;101632.69;5046334;28;20788;-66
2022/06/18 09:12:48;;;;;;;21.83;9.93;;;;;;;30.55;47.02;101634.78;5046373;28;20093;-65
2022/06/18 09:15:22;;;;;;;19.45;10.45;;;;;;;30.74;49.22;101627.66;5046735;28;20040;-66
2022/06/18 09:17:51;;;;;;;13.27;10.00;;;;;;;30.55;45.44;101629.28;5048550;28;20041;-67
2022/06/18 09:20:25;;;;;;;23.10;9.07;;;;;;;31.09;43.85;101620.00;5047337;28;20085;-69
2022/06/18 09:22:54;;;;;;;14.00;8.93;;;;;;;31.09;46.61;101622.75;5048576;28;20059;-69
2022/06/18 09:25:26;;;;;;;13.90;7.63;;;;;;;31.25;48.69;101621.47;5040482;28;20037;-69
2022/06/18 09:28:03;;;;;;;20.42;11.23;;;;;;;31.15;48.02;101622.75;5043555;28;20040;-69
2022/06/18 09:30:37;;;;;;;19.50;11.38;;;;;;;31.15;48.59;101622.75;5049968;28;20036;-69
2022/06/18 09:33:10;;;;;;;19.50;10.05;;;;;;;30.60;45.16;101624.84;5050102;28;20264;-69
2022/06/18 09:35:42;;;;;;;24.58;9.07;;;;;;;31.21;48.34;101623.78;5081530;27;20882;-68
2022/06/18 09:38:19;;;;;;;21.33;10.18;;;;;;;31.16;44.95;101623.59;5051312;28;20037;-68
2022/06/18 09:40:50;;;;;;;13.13;8.02;;;;;;;30.87;46.32;101620.22;5051705;28;20580;-68
2022/06/18 09:43:37;;;;;;;27.45;8.85;;;;;;;30.64;45.71;101615.09;5047701;28;20033;-69
2022/06/18 09:46:09;;;;;;;22.10;8.50;;;;;;;31.04;44.86;101606.03;5050190;28;20054;-69
2022/06/18 09:48:36;;;;;;;18.33;8.85;;;;;;;31.12;45.39;101601.09;5051346;28;20036;-70
2022/06/18 09:51:10;;;;;;;18.58;8.13;;;;;;;31.55;43.68;101603.38;5051899;28;20059;-69
2022/06/18 09:53:40;;;;;;;16.23;6.90;;;;;;;30.89;46.48;101604.34;5055996;28;20072;-68
2022/06/18 09:56:23;;;;;;;20.85;7.35;;;;;;;31.24;46.48;101601.31;5049533;28;20079;-70
2022/06/18 09:58:55;;;;;;;13.10;5.90;;;;;;;31.37;41.38;101598.53;5051351;28;20089;-69
2022/06/18 10:01:27;;;;;;;14.85;6.97;;;;;;;31.74;46.15;101598.84;5050431;28;20487;-70
2022/06/18 10:06:57;;;;;;;13.13;6.72;;;;;;;31.19;46.18;101595.59;5058331;28;20479;-71
2022/06/18 10:09:54;;;;;;;17.13;8.25;;;;;;;31.24;45.55;101601.31;5035863;28;20037;-70
2022/06/18 10:12:26;;;;;;;16.35;7.55;;;;;;;30.93;51.42;101602.00;5046180;28;20143;-69
2022/06/18 10:14:53;;;;;;;;;;;;;;;30.27;48.08;101600.00;5049360;28;20037;-71
2022/06/18 10:17:24;;;;;;;16.33;6.82;;;;;;;31.24;45.70;101597.72;5049938;28;19942;-70
2022/06/18 10:19:52;;;;;;;21.25;6.25;;;;;;;31.51;43.69;101593.00;5050121;28;20558;-70
2022/06/18 10:22:57;;;;;;;12.93;5.78;;;;;;;31.61;40.76;101588.72;5045681;28;20695;-71
2022/06/18 10:25:42;;;;;;;16.67;6.47;;;;;;;31.37;45.02;101581.16;5048748;28;20068;-70
2022/06/18 10:28:32;;;;;;;16.88;5.60;;;;;;;31.83;41.65;101575.50;5048268;28;20094;-71
2022/06/18 10:31:25;;;;;;;24.30;6.70;;;;;;;31.82;42.32;101575.69;5049687;28;20044;-70
2022/06/18 10:34:12;;;;;;;14.30;6.38;;;;;;;30.83;48.46;101574.03;5051191;28;21362;-71
2022/06/18 10:36:52;;;;;;;9.50;4.75;;;;;;;31.38;45.21;101566.34;5051098;28;20040;-70
2022/06/18 10:39:17;;;;;;;15.98;5.53;;;;;;;31.59;42.12;101582.56;5048555;28;20718;-68
2022/06/18 10:41:59;;;;;;;11.55;5.75;;;;;;;31.21;42.01;101586.03;5049797;28;20037;-69
2022/06/18 10:45:13;;;;;;;16.80;5.00;;;;;;;31.35;41.64;101581.38;5045946;28;20048;-69
2022/06/18 10:47:44;;;;;;;14.43;5.32;;;;;;;31.30;42.32;101581.19;5025408;28;20789;-70
2022/06/18 10:50:17;;;;;;;19.58;5.45;;;;;;;31.34;41.87;101574.19;5025904;28;20737;-70
2022/06/18 10:52:44;;;;;;;14.30;5.63;;;;;;;31.67;41.57;101575.94;5028749;28;20144;-70
2022/06/18 10:55:17;;;;;;;14.85;5.45;;;;;;;31.86;41.78;101571.44;5028817;28;20055;-69
2022/06/18 10:57:44;;;;;;;10.70;4.93;;;;;;;32.29;42.98;101571.59;5026665;28;20175;-69
2022/06/18 11:00:10;;;;;;;14.27;4.38;;;;;;;32.19;38.80;101569.34;5012983;28;20056;-69
2022/06/18 11:02:38;;;;;;;19.95;5.57;;;;;;;31.84;39.86;101570.84;5014833;28;20048;-70
2022/06/18 11:05:15;;;;;;;13.45;4.95;;;;;;;31.95;40.50;101564.59;5020726;28;20048;-69
2022/06/18 11:07:46;;;;;;;17.75;4.57;;;;;;;31.71;41.27;101566.19;5026408;28;20041;-69
2022/06/18 11:10:33;;;;;;;13.93;5.43;;;;;;;32.35;38.74;101565.19;5028962;28;20048;-69
2022/06/18 11:13:00;;;;;;;20.13;5.40;;;;;;;32.21;43.91;101558.06;5020013;28;20044;-69
2022/06/18 11:15:32;;;;;;;20.10;5.63;;;;;;;32.14;38.73;101560.88;5024419;28;20097;-69
2022/06/18 11:17:58;;;;;;;9.98;4.53;;;;;;;32.04;39.84;101556.91;5032824;28;20412;-69
2022/06/18 11:20:27;;;;;;;21.00;5.03;;;;;;;31.97;39.94;101555.03;5049542;28;20422;-70
2022/06/18 11:22:56;;;;;;;14.13;4.93;;;;;;;32.11;38.06;101547.50;5053001;28;20080;-69
2022/06/18 11:25:35;;;;;;;18.42;5.10;;;;;;;32.15;38.22;101550.69;5053985;28;20544;-70
2022/06/18 11:28:05;;;;;;;15.57;5.28;;;;;;;32.00;38.31;101541.88;5046628;28;20641;-69
2022/06/18 11:30:40;;;;;;;16.90;5.33;;;;;;;31.55;39.25;101539.09;5049038;28;20164;-71
2022/06/18 11:33:21;;;;;;;14.77;4.90;;;;;;;31.59;43.27;101530.19;5045848;28;20471;-70
2022/06/18 11:35:50;;;;;;;15.30;5.55;;;;;;;31.98;42.51;101533.81;5047404;28;20040;-69
2022/06/18 11:38:28;;;;;;;13.20;5.10;;;;;;;31.85;40.21;101529.22;5048644;28;20264;-70
2022/06/18 11:40:56;;;;;;;13.13;4.88;;;;;;;31.76;41.90;101525.00;5049909;28;20389;-69
2022/06/18 11:43:31;;;;;;;17.80;5.63;;;;;;;32.32;43.26;101523.38;5066141;28;20774;-69
2022/06/18 11:46:04;;;;;;;13.75;5.05;;;;;;;32.29;40.25;101512.78;5061171;28;20036;-70
2022/06/18 11:48:56;;;;;;;16.30;4.50;;;;;;;32.17;40.34;101510.72;5049071;28;20143;-70
2022/06/18 11:51:53;;;;;;;14.48;5.07;;;;;;;32.08;39.84;101513.97;5047729;28;20028;-68
2022/06/18 11:54:30;;;;;;;15.13;5.57;;;;;;;32.08;43.25;101511.22;5047864;28;20040;-72